sensor_id;sensor_type;location;lat;lon;timestamp;pressure;altitude;pressure_sealevel;temperature;humidity
74921;BME280;63483;47.384;8.860;2022-10-15T00:02:04;94269.56;;;12.49;56.00
74921;BME280;63483;47.384;8.860;2022-10-15T00:04:30;94263.31;;;12.51;56.19
74921;BME280;63483;47.384;8.860;2022-10-15T00:06:55;94260.31;;;12.47;56.12
74921;BME280;63483;47.384;8.860;2022-10-15T00:09:21;94277.66;;;12.41;56.53
74921;BME280;63483;47.384;8.860;2022-10-15T00:11:46;94258.66;;;12.39;56.41
74921;BME280;63483;47.384;8.860;2022-10-15T00:14:11;94272.41;;;12.41;56.39
74921;BME280;63483;47.384;8.860;2022-10-15T00:16:37;94276.47;;;12.44;56.43
74921;BME280;63483;47.384;8.860;2022-10-15T00:19:02;94287.75;;;12.44;56.29
74921;BME280;63483;47.384;8.860;2022-10-15T00:21:28;94273.63;;;12.45;56.29
74921;BME280;63483;47.384;8.860;2022-10-15T00:23:54;94278.88;;;12.45;56.53
74921;BME280;63483;47.384;8.860;2022-10-15T00:26:22;94285.34;;;12.49;56.28
74921;BME280;63483;47.384;8.860;2022-10-15T00:28:50;94291.81;;;12.47;56.42
74921;BME280;63483;47.384;8.860;2022-10-15T00:31:17;94285.97;;;12.52;56.33
74921;BME280;63483;47.384;8.860;2022-10-15T00:33:48;94278.09;;;12.52;56.62
74921;BME280;63483;47.384;8.860;2022-10-15T00:36:15;94278.69;;;12.54;56.53
74921;BME280;63483;47.384;8.860;2022-10-15T00:38:41;94282.50;;;12.51;56.62
74921;BME280;63483;47.384;8.860;2022-10-15T00:41:07;94285.75;;;12.53;56.60
74921;BME280;63483;47.384;8.860;2022-10-15T00:48:55;94271.41;;;12.56;56.80
74921;BME280;63483;47.384;8.860;2022-10-15T00:51:21;94271.81;;;12.53;56.56
74921;BME280;63483;47.384;8.860;2022-10-15T00:53:49;94272.19;;;12.49;56.97
74921;BME280;63483;47.384;8.860;2022-10-15T00:56:17;94279.72;;;12.53;56.62
74921;BME280;63483;47.384;8.860;2022-10-15T00:58:45;94275.25;;;12.53;56.80
74921;BME280;63483;47.384;8.860;2022-10-15T01:01:11;94278.69;;;12.54;56.77
74921;BME280;63483;47.384;8.860;2022-10-15T01:03:37;94278.09;;;12.52;56.88
74921;BME280;63483;47.384;8.860;2022-10-15T01:06:02;94282.34;;;12.53;56.70
74921;BME280;63483;47.384;8.860;2022-10-15T01:08:28;94271.19;;;12.51;56.59
74921;BME280;63483;47.384;8.860;2022-10-15T01:11:21;94286.13;;;12.43;56.78
74921;BME280;63483;47.384;8.860;2022-10-15T01:13:53;94285.94;;;12.38;56.67
74921;BME280;63483;47.384;8.860;2022-10-15T01:16:35;94288.97;;;12.42;56.98
74921;BME280;63483;47.384;8.860;2022-10-15T01:22:12;94288.16;;;12.41;56.89
74921;BME280;63483;47.384;8.860;2022-10-15T01:24:49;94283.28;;;12.25;57.17
74921;BME280;63483;47.384;8.860;2022-10-15T01:27:26;94284.31;;;12.37;56.85
74921;BME280;63483;47.384;8.860;2022-10-15T01:30:14;94289.16;;;12.40;56.89
74921;BME280;63483;47.384;8.860;2022-10-15T01:33:21;94293.22;;;12.43;57.02
74921;BME280;63483;47.384;8.860;2022-10-15T01:36:15;94291.41;;;12.43;56.65
74921;BME280;63483;47.384;8.860;2022-10-15T01:41:17;94296.66;;;12.43;56.91
74921;BME280;63483;47.384;8.860;2022-10-15T01:43:58;94284.94;;;12.46;56.69
74921;BME280;63483;47.384;8.860;2022-10-15T01:46:42;94291.00;;;12.46;56.84
74921;BME280;63483;47.384;8.860;2022-10-15T01:49:12;94294.63;;;12.52;56.78
74921;BME280;63483;47.384;8.860;2022-10-15T01:51:39;94296.06;;;12.55;56.53
74921;BME280;63483;47.384;8.860;2022-10-15T01:54:11;94286.16;;;12.57;56.34
74921;BME280;63483;47.384;8.860;2022-10-15T01:56:39;94292.63;;;12.61;56.31
74921;BME280;63483;47.384;8.860;2022-10-15T01:59:05;94279.31;;;12.56;56.50
74921;BME280;63483;47.384;8.860;2022-10-15T02:01:33;94277.88;;;12.60;56.40
74921;BME280;63483;47.384;8.860;2022-10-15T02:03:58;94280.91;;;12.57;56.50
74921;BME280;63483;47.384;8.860;2022-10-15T02:06:31;94271.22;;;12.57;56.67
74921;BME280;63483;47.384;8.860;2022-10-15T02:09:14;94258.28;;;12.56;56.42
74921;BME280;63483;47.384;8.860;2022-10-15T02:14:52;94271.59;;;12.47;56.75
74921;BME280;63483;47.384;8.860;2022-10-15T02:17:26;94263.72;;;12.47;56.60
74921;BME280;63483;47.384;8.860;2022-10-15T02:20:11;94273.22;;;12.48;56.68
74921;BME280;63483;47.384;8.860;2022-10-15T02:25:21;94250.78;;;12.46;56.95
74921;BME280;63483;47.384;8.860;2022-10-15T02:27:48;94253.81;;;12.49;56.71
74921;BME280;63483;47.384;8.860;2022-10-15T02:30:16;94249.78;;;12.54;56.56
74921;BME280;63483;47.384;8.860;2022-10-15T02:32:44;94247.78;;;12.56;56.52
74921;BME280;63483;47.384;8.860;2022-10-15T02:35:11;94247.34;;;12.52;56.51
74921;BME280;63483;47.384;8.860;2022-10-15T02:37:40;94242.94;;;12.53;56.69
74921;BME280;63483;47.384;8.860;2022-10-15T02:40:07;94246.56;;;12.52;56.46
74921;BME280;63483;47.384;8.860;2022-10-15T02:42:32;94245.34;;;12.54;56.54
74921;BME280;63483;47.384;8.860;2022-10-15T02:44:58;94243.72;;;12.53;56.64
74921;BME280;63483;47.384;8.860;2022-10-15T02:47:23;94249.78;;;12.54;56.58
74921;BME280;63483;47.384;8.860;2022-10-15T02:49:49;94232.81;;;12.49;56.66
74921;BME280;63483;47.384;8.860;2022-10-15T02:52:14;94234.84;;;12.54;56.42
74921;BME280;63483;47.384;8.860;2022-10-15T02:54:39;94240.09;;;12.54;56.25
74921;BME280;63483;47.384;8.860;2022-10-15T02:57:05;94244.53;;;12.54;56.47
74921;BME280;63483;47.384;8.860;2022-10-15T02:59:30;94244.53;;;12.54;56.34
74921;BME280;63483;47.384;8.860;2022-10-15T03:01:55;94243.31;;;12.56;56.61
74921;BME280;63483;47.384;8.860;2022-10-15T03:04:21;94243.31;;;12.56;56.42
74921;BME280;63483;47.384;8.860;2022-10-15T03:06:46;94242.13;;;12.59;56.44
74921;BME280;63483;47.384;8.860;2022-10-15T03:09:11;94237.28;;;12.56;56.63
74921;BME280;63483;47.384;8.860;2022-10-15T03:11:37;94238.47;;;12.60;56.36
74921;BME280;63483;47.384;8.860;2022-10-15T03:14:03;94245.34;;;12.61;56.34
74921;BME280;63483;47.384;8.860;2022-10-15T03:16:28;94243.50;;;12.61;56.38
74921;BME280;63483;47.384;8.860;2022-10-15T03:18:53;94251.19;;;12.63;56.19
74921;BME280;63483;47.384;8.860;2022-10-15T03:21:19;94245.16;;;12.56;56.30
74921;BME280;63483;47.384;8.860;2022-10-15T03:23:44;94235.66;;;12.55;56.02
74921;BME280;63483;47.384;8.860;2022-10-15T03:26:09;94242.13;;;12.59;56.12
74921;BME280;63483;47.384;8.860;2022-10-15T03:28:35;94248.56;;;12.63;56.05
74921;BME280;63483;47.384;8.860;2022-10-15T03:31:00;94253.22;;;12.61;56.08
74921;BME280;63483;47.384;8.860;2022-10-15T03:33:25;94261.09;;;12.61;55.99
74921;BME280;63483;47.384;8.860;2022-10-15T03:35:51;94251.03;;;12.64;55.75
74921;BME280;63483;47.384;8.860;2022-10-15T03:38:17;94246.13;;;12.61;56.04
74921;BME280;63483;47.384;8.860;2022-10-15T03:40:43;94260.28;;;12.67;56.09
74921;BME280;63483;47.384;8.860;2022-10-15T03:43:09;94256.06;;;12.59;55.70
74921;BME280;63483;47.384;8.860;2022-10-15T03:45:34;94265.53;;;12.67;55.92
74921;BME280;63483;47.384;8.860;2022-10-15T03:47:59;94260.69;;;12.64;55.93
74921;BME280;63483;47.384;8.860;2022-10-15T03:50:25;94262.91;;;12.67;55.84
74921;BME280;63483;47.384;8.860;2022-10-15T03:52:50;94252.41;;;12.67;55.58
74921;BME280;63483;47.384;8.860;2022-10-15T03:55:15;94261.09;;;12.61;55.87
74921;BME280;63483;47.384;8.860;2022-10-15T03:57:41;94255.84;;;12.61;55.76
74921;BME280;63483;47.384;8.860;2022-10-15T04:00:08;94256.66;;;12.61;55.87
74921;BME280;63483;47.384;8.860;2022-10-15T04:02:33;94257.88;;;12.59;55.92
74921;BME280;63483;47.384;8.860;2022-10-15T04:04:59;94258.91;;;12.64;55.86
74921;BME280;63483;47.384;8.860;2022-10-15T04:07:24;94257.06;;;12.65;55.82
74921;BME280;63483;47.384;8.860;2022-10-15T04:09:50;94260.31;;;12.60;56.02
74921;BME280;63483;47.384;8.860;2022-10-15T04:12:15;94263.94;;;12.53;56.27
74921;BME280;63483;47.384;8.860;2022-10-15T04:14:41;94263.94;;;12.66;55.79
74921;BME280;63483;47.384;8.860;2022-10-15T04:17:06;94264.72;;;12.60;56.01
74921;BME280;63483;47.384;8.860;2022-10-15T04:19:32;94267.56;;;12.65;55.94
74921;BME280;63483;47.384;8.860;2022-10-15T04:21:57;94265.53;;;12.67;56.02
74921;BME280;63483;47.384;8.860;2022-10-15T04:24:23;94277.28;;;12.64;56.05
74921;BME280;63483;47.384;8.860;2022-10-15T04:26:48;94266.78;;;12.64;55.61
74921;BME280;63483;47.384;8.860;2022-10-15T04:29:14;94263.13;;;12.65;55.90
74921;BME280;63483;47.384;8.860;2022-10-15T04:31:39;94264.72;;;12.60;55.95
74921;BME280;63483;47.384;8.860;2022-10-15T04:34:05;94262.72;;;12.55;56.12
74921;BME280;63483;47.384;8.860;2022-10-15T04:36:31;94273.22;;;12.55;56.08
74921;BME280;63483;47.384;8.860;2022-10-15T04:38:56;94265.75;;;12.59;55.89
74921;BME280;63483;47.384;8.860;2022-10-15T04:41:21;94253.81;;;12.63;55.83
74921;BME280;63483;47.384;8.860;2022-10-15T04:43:47;94262.31;;;12.65;55.64
74921;BME280;63483;47.384;8.860;2022-10-15T04:46:12;94265.34;;;12.62;55.72
74921;BME280;63483;47.384;8.860;2022-10-15T04:48:38;94259.47;;;12.73;55.75
74921;BME280;63483;47.384;8.860;2022-10-15T04:51:11;94260.91;;;12.69;55.57
74921;BME280;63483;47.384;8.860;2022-10-15T04:53:37;94266.75;;;12.71;55.36
74921;BME280;63483;47.384;8.860;2022-10-15T04:56:05;94257.88;;;12.72;55.38
74921;BME280;63483;47.384;8.860;2022-10-15T04:58:33;94252.63;;;12.72;55.57
74921;BME280;63483;47.384;8.860;2022-10-15T05:01:04;94253.47;;;12.79;55.45
74921;BME280;63483;47.384;8.860;2022-10-15T05:03:30;94263.56;;;12.82;55.29
74921;BME280;63483;47.384;8.860;2022-10-15T05:06:17;94253.66;;;12.85;54.98
74921;BME280;63483;47.384;8.860;2022-10-15T05:08:44;94259.13;;;12.90;54.98
74921;BME280;63483;47.384;8.860;2022-10-15T05:11:12;94264.97;;;12.92;55.16
74921;BME280;63483;47.384;8.860;2022-10-15T05:13:38;94265.56;;;12.94;54.91
74921;BME280;63483;47.384;8.860;2022-10-15T05:18:43;94271.44;;;12.96;54.89
74921;BME280;63483;47.384;8.860;2022-10-15T05:21:10;94261.34;;;12.93;54.92
74921;BME280;63483;47.384;8.860;2022-10-15T05:23:36;94268.81;;;12.96;54.91
74921;BME280;63483;47.384;8.860;2022-10-15T05:26:04;94266.78;;;12.98;55.06
74921;BME280;63483;47.384;8.860;2022-10-15T05:28:30;94265.16;;;12.97;54.87
74921;BME280;63483;47.384;8.860;2022-10-15T05:30:55;94271.03;;;12.99;55.22
74921;BME280;63483;47.384;8.860;2022-10-15T05:33:21;94273.66;;;12.99;55.22
74921;BME280;63483;47.384;8.860;2022-10-15T05:35:46;94272.44;;;12.95;54.81
74921;BME280;63483;47.384;8.860;2022-10-15T05:38:11;94270.63;;;12.95;54.99
74921;BME280;63483;47.384;8.860;2022-10-15T05:40:37;94274.06;;;12.96;54.86
74921;BME280;63483;47.384;8.860;2022-10-15T05:43:02;94281.56;;;12.99;54.87
74921;BME280;63483;47.384;8.860;2022-10-15T05:45:28;94283.78;;;13.02;54.91
74921;BME280;63483;47.384;8.860;2022-10-15T05:47:54;94294.28;;;13.02;54.92
74921;BME280;63483;47.384;8.860;2022-10-15T05:50:20;94301.16;;;13.03;54.84
74921;BME280;63483;47.384;8.860;2022-10-15T05:52:46;94305.38;;;13.04;54.65
74921;BME280;63483;47.384;8.860;2022-10-15T05:55:12;94295.91;;;13.03;54.64
74921;BME280;63483;47.384;8.860;2022-10-15T05:57:37;94293.06;;;13.05;54.70
74921;BME280;63483;47.384;8.860;2022-10-15T06:00:04;94306.44;;;13.03;54.81
74921;BME280;63483;47.384;8.860;2022-10-15T06:02:29;94310.06;;;13.02;54.46
74921;BME280;63483;47.384;8.860;2022-10-15T06:04:55;94316.94;;;13.03;54.76
74921;BME280;63483;47.384;8.860;2022-10-15T06:07:20;94302.97;;;13.03;54.93
74921;BME280;63483;47.384;8.860;2022-10-15T06:09:46;94305.38;;;13.04;54.84
74921;BME280;63483;47.384;8.860;2022-10-15T06:12:11;94303.59;;;13.05;54.49
74921;BME280;63483;47.384;8.860;2022-10-15T06:14:36;94299.13;;;13.05;54.38
74921;BME280;63483;47.384;8.860;2022-10-15T06:17:01;94296.72;;;13.04;54.52
74921;BME280;63483;47.384;8.860;2022-10-15T06:19:27;94297.50;;;13.04;54.35
74921;BME280;63483;47.384;8.860;2022-10-15T06:21:52;94299.13;;;13.05;54.51
74921;BME280;63483;47.384;8.860;2022-10-15T06:24:17;94303.38;;;13.06;54.51
74921;BME280;63483;47.384;8.860;2022-10-15T06:26:43;94311.47;;;12.98;54.38
74921;BME280;63483;47.384;8.860;2022-10-15T06:29:08;94308.84;;;12.98;54.37
74921;BME280;63483;47.384;8.860;2022-10-15T06:31:34;94320.56;;;12.89;54.16
74921;BME280;63483;47.384;8.860;2022-10-15T06:33:59;94323.81;;;12.97;54.72
74921;BME280;63483;47.384;8.860;2022-10-15T06:36:24;94328.25;;;12.97;54.95
74921;BME280;63483;47.384;8.860;2022-10-15T06:38:50;94336.34;;;13.02;54.60
74921;BME280;63483;47.384;8.860;2022-10-15T06:41:15;94348.88;;;13.07;54.71
74921;BME280;63483;47.384;8.860;2022-10-15T06:43:41;94337.16;;;13.09;54.35
74921;BME280;63483;47.384;8.860;2022-10-15T06:46:07;94328.44;;;13.09;53.73
74921;BME280;63483;47.384;8.860;2022-10-15T06:48:33;94342.41;;;13.09;53.78
74921;BME280;63483;47.384;8.860;2022-10-15T06:50:59;94352.13;;;13.02;54.31
74921;BME280;63483;47.384;8.860;2022-10-15T06:53:25;94360.00;;;13.02;54.15
74921;BME280;63483;47.384;8.860;2022-10-15T06:55:50;94358.38;;;13.08;54.10
74921;BME280;63483;47.384;8.860;2022-10-15T06:58:16;94362.22;;;13.12;53.86
74921;BME280;63483;47.384;8.860;2022-10-15T07:00:41;94369.53;;;13.16;53.92
74921;BME280;63483;47.384;8.860;2022-10-15T07:03:07;94366.25;;;13.14;54.00
74921;BME280;63483;47.384;8.860;2022-10-15T07:05:33;94371.34;;;13.09;53.74
74921;BME280;63483;47.384;8.860;2022-10-15T07:07:59;94363.44;;;13.03;53.59
74921;BME280;63483;47.384;8.860;2022-10-15T07:10:26;94370.94;;;13.12;53.75
74921;BME280;63483;47.384;8.860;2022-10-15T07:12:52;94375.19;;;13.13;53.59
74921;BME280;63483;47.384;8.860;2022-10-15T07:15:19;94379.22;;;13.09;53.72
74921;BME280;63483;47.384;8.860;2022-10-15T07:17:54;94369.31;;;13.11;53.55
74921;BME280;63483;47.384;8.860;2022-10-15T07:20:29;94378.41;;;13.15;53.84
74921;BME280;63483;47.384;8.860;2022-10-15T07:22:59;94375.38;;;13.18;53.37
74921;BME280;63483;47.384;8.860;2022-10-15T07:25:25;94378.59;;;13.07;53.20
74921;BME280;63483;47.384;8.860;2022-10-15T07:27:51;94381.25;;;13.14;53.55
74921;BME280;63483;47.384;8.860;2022-10-15T07:30:17;94386.47;;;13.21;53.76
74921;BME280;63483;47.384;8.860;2022-10-15T07:32:42;94384.88;;;13.26;53.06
74921;BME280;63483;47.384;8.860;2022-10-15T07:35:08;94386.50;;;13.27;52.43
74921;BME280;63483;47.384;8.860;2022-10-15T07:37:34;94400.66;;;13.33;52.98
74921;BME280;63483;47.384;8.860;2022-10-15T07:39:59;94396.22;;;13.40;52.91
74921;BME280;63483;47.384;8.860;2022-10-15T07:42:25;94394.19;;;13.42;53.16
74921;BME280;63483;47.384;8.860;2022-10-15T07:44:50;94389.50;;;13.44;53.00
74921;BME280;63483;47.384;8.860;2022-10-15T07:47:16;94408.34;;;13.48;52.68
74921;BME280;63483;47.384;8.860;2022-10-15T07:49:41;94399.44;;;13.56;52.75
74921;BME280;63483;47.384;8.860;2022-10-15T07:52:06;94398.63;;;13.55;52.69
74921;BME280;63483;47.384;8.860;2022-10-15T07:54:35;94404.69;;;13.56;52.29
74921;BME280;63483;47.384;8.860;2022-10-15T07:57:00;94411.56;;;13.57;52.83
74921;BME280;63483;47.384;8.860;2022-10-15T07:59:26;94405.50;;;13.63;52.52
74921;BME280;63483;47.384;8.860;2022-10-15T08:01:51;94405.50;;;13.63;52.61
74921;BME280;63483;47.384;8.860;2022-10-15T08:04:17;94400.22;;;13.69;52.31
74921;BME280;63483;47.384;8.860;2022-10-15T08:06:44;94398.03;;;13.73;52.91
74921;BME280;63483;47.384;8.860;2022-10-15T08:09:09;94409.34;;;13.74;52.36
74921;BME280;63483;47.384;8.860;2022-10-15T08:11:35;94396.22;;;13.67;52.20
74921;BME280;63483;47.384;8.860;2022-10-15T08:14:00;94394.97;;;13.76;51.86
74921;BME280;63483;47.384;8.860;2022-10-15T08:16:27;94400.03;;;13.78;52.33
74921;BME280;63483;47.384;8.860;2022-10-15T08:18:53;94397.41;;;13.84;51.87
74921;BME280;63483;47.384;8.860;2022-10-15T08:21:18;94393.72;;;13.92;51.98
74921;BME280;63483;47.384;8.860;2022-10-15T08:23:43;94399.16;;;13.97;52.10
74921;BME280;63483;47.384;8.860;2022-10-15T08:26:09;94400.97;;;14.03;51.76
74921;BME280;63483;47.384;8.860;2022-10-15T08:28:34;94400.53;;;14.13;52.00
74921;BME280;63483;47.384;8.860;2022-10-15T08:31:01;94408.22;;;14.21;52.18
74921;BME280;63483;47.384;8.860;2022-10-15T08:33:27;94394.81;;;14.30;51.82
74921;BME280;63483;47.384;8.860;2022-10-15T08:35:53;94402.47;;;14.38;51.75
74921;BME280;63483;47.384;8.860;2022-10-15T08:38:19;94401.66;;;14.37;51.46
74921;BME280;63483;47.384;8.860;2022-10-15T08:40:47;94403.25;;;14.45;51.37
74921;BME280;63483;47.384;8.860;2022-10-15T08:43:21;94411.34;;;14.44;52.20
74921;BME280;63483;47.384;8.860;2022-10-15T08:45:48;94405.66;;;14.53;51.57
74921;BME280;63483;47.384;8.860;2022-10-15T08:48:20;94413.78;;;14.58;50.91
74921;BME280;63483;47.384;8.860;2022-10-15T08:50:54;94418.19;;;14.65;50.72
74921;BME280;63483;47.384;8.860;2022-10-15T08:53:23;94410.03;;;14.73;51.52
74921;BME280;63483;47.384;8.860;2022-10-15T08:55:53;94422.16;;;14.81;51.71
74921;BME280;63483;47.384;8.860;2022-10-15T08:58:35;94412.84;;;14.78;50.87
74921;BME280;63483;47.384;8.860;2022-10-15T09:01:09;94414.25;;;14.81;50.72
74921;BME280;63483;47.384;8.860;2022-10-15T09:06:33;94425.91;;;14.60;50.37
74921;BME280;63483;47.384;8.860;2022-10-15T09:14:34;94427.13;;;14.64;50.16
74921;BME280;63483;47.384;8.860;2022-10-15T09:17:22;94427.53;;;14.61;50.00
74921;BME280;63483;47.384;8.860;2022-10-15T09:19:52;94429.78;;;14.57;50.35
74921;BME280;63483;47.384;8.860;2022-10-15T09:22:26;94425.31;;;14.57;49.78
74921;BME280;63483;47.384;8.860;2022-10-15T09:24:52;94434.03;;;14.58;50.25
74921;BME280;63483;47.384;8.860;2022-10-15T09:27:33;94431.78;;;14.62;50.42
74921;BME280;63483;47.384;8.860;2022-10-15T09:32:34;94431.78;;;14.62;50.26
74921;BME280;63483;47.384;8.860;2022-10-15T09:35:16;94426.75;;;14.60;50.08
74921;BME280;63483;47.384;8.860;2022-10-15T09:43:00;94431.13;;;14.73;49.89
74921;BME280;63483;47.384;8.860;2022-10-15T09:45:27;94441.84;;;14.78;49.98
74921;BME280;63483;47.384;8.860;2022-10-15T09:47:57;94439.22;;;14.78;49.73
74921;BME280;63483;47.384;8.860;2022-10-15T09:50:27;94442.41;;;14.87;50.17
74921;BME280;63483;47.384;8.860;2022-10-15T09:55:55;94434.88;;;14.90;49.72
74921;BME280;63483;47.384;8.860;2022-10-15T09:58:35;94433.44;;;14.95;48.91
74921;BME280;63483;47.384;8.860;2022-10-15T10:01:03;94436.22;;;15.00;49.82
74921;BME280;63483;47.384;8.860;2022-10-15T10:03:31;94431.94;;;15.05;50.00
74921;BME280;63483;47.384;8.860;2022-10-15T10:06:17;94433.34;;;15.08;49.03
74921;BME280;63483;47.384;8.860;2022-10-15T10:08:55;94435.56;;;15.11;48.94
74921;BME280;63483;47.384;8.860;2022-10-15T10:11:23;94439.81;;;15.12;48.62
74921;BME280;63483;47.384;8.860;2022-10-15T10:13:53;94438.63;;;15.08;47.75
74921;BME280;63483;47.384;8.860;2022-10-15T10:16:20;94432.34;;;15.09;49.17
74921;BME280;63483;47.384;8.860;2022-10-15T10:19:13;94427.22;;;15.14;48.85
74921;BME280;63483;47.384;8.860;2022-10-15T10:21:40;94432.06;;;15.17;48.88
74921;BME280;63483;47.384;8.860;2022-10-15T10:24:27;94429.63;;;15.16;49.19
74921;BME280;63483;47.384;8.860;2022-10-15T10:26:55;94426.84;;;15.10;48.69
74921;BME280;63483;47.384;8.860;2022-10-15T10:29:22;94439.22;;;15.10;48.68
74921;BME280;63483;47.384;8.860;2022-10-15T10:31:48;94443.47;;;15.11;48.22
74921;BME280;63483;47.384;8.860;2022-10-15T10:34:23;94438.19;;;15.11;48.88
74921;BME280;63483;47.384;8.860;2022-10-15T10:36:51;94433.50;;;15.13;48.21
74921;BME280;63483;47.384;8.860;2022-10-15T10:39:26;94440.25;;;15.09;47.95
74921;BME280;63483;47.384;8.860;2022-10-15T10:49:40;94445.09;;;15.12;48.52
74921;BME280;63483;47.384;8.860;2022-10-15T10:52:30;94442.47;;;15.12;48.62
74921;BME280;63483;47.384;8.860;2022-10-15T10:55:05;94438.78;;;15.13;49.57
74921;BME280;63483;47.384;8.860;2022-10-15T11:00:04;94441.59;;;15.18;49.15
74921;BME280;63483;47.384;8.860;2022-10-15T11:02:32;94436.91;;;15.20;48.44
74921;BME280;63483;47.384;8.860;2022-10-15T11:04:58;94445.22;;;15.24;48.13
74921;BME280;63483;47.384;8.860;2022-10-15T11:07:31;94447.47;;;15.20;48.60
74921;BME280;63483;47.384;8.860;2022-10-15T11:18:36;94449.31;;;15.20;49.02
74921;BME280;63483;47.384;8.860;2022-10-15T11:24:07;94439.72;;;15.25;48.74
74921;BME280;63483;47.384;8.860;2022-10-15T11:26:36;94438.09;;;15.24;48.44
74921;BME280;63483;47.384;8.860;2022-10-15T11:29:17;94436.03;;;15.26;48.75
74921;BME280;63483;47.384;8.860;2022-10-15T11:48:03;94419.81;;;15.30;47.76
74921;BME280;63483;47.384;8.860;2022-10-15T11:50:45;94429.31;;;15.31;47.30
74921;BME280;63483;47.384;8.860;2022-10-15T11:56:25;94413.84;;;15.41;47.82
74921;BME280;63483;47.384;8.860;2022-10-15T11:58:59;94409.19;;;15.43;47.66
74921;BME280;63483;47.384;8.860;2022-10-15T12:01:39;94411.59;;;15.44;47.86
74921;BME280;63483;47.384;8.860;2022-10-15T12:06:48;94394.25;;;15.55;47.71
74921;BME280;63483;47.384;8.860;2022-10-15T12:09:19;94389.34;;;15.59;47.56
74921;BME280;63483;47.384;8.860;2022-10-15T12:14:27;94389.13;;;15.60;47.48
74921;BME280;63483;47.384;8.860;2022-10-15T12:17:15;94377.72;;;15.67;46.90
74921;BME280;63483;47.384;8.860;2022-10-15T12:20:13;94376.53;;;15.62;46.92
74921;BME280;63483;47.384;8.860;2022-10-15T12:25:45;94376.81;;;15.73;46.61
74921;BME280;63483;47.384;8.860;2022-10-15T12:28:16;94374.09;;;15.79;46.75
74921;BME280;63483;47.384;8.860;2022-10-15T12:30:52;94360.47;;;15.83;47.38
74921;BME280;63483;47.384;8.860;2022-10-15T12:35:54;94361.13;;;15.96;46.17
74921;BME280;63483;47.384;8.860;2022-10-15T12:41:22;94360.69;;;16.18;46.57
74921;BME280;63483;47.384;8.860;2022-10-15T12:46:38;94360.41;;;16.26;45.80
74921;BME280;63483;47.384;8.860;2022-10-15T12:51:54;94359.22;;;16.41;46.00
74921;BME280;63483;47.384;8.860;2022-10-15T12:54:46;94360.97;;;16.47;44.42
74921;BME280;63483;47.384;8.860;2022-10-15T13:02:51;94359.50;;;16.32;45.52
74921;BME280;63483;47.384;8.860;2022-10-15T13:05:31;94372.94;;;16.31;45.76
74921;BME280;63483;47.384;8.860;2022-10-15T13:08:00;94364.69;;;16.27;45.89
74921;BME280;63483;47.384;8.860;2022-10-15T13:10:29;94368.91;;;16.28;45.80
74921;BME280;63483;47.384;8.860;2022-10-15T13:13:00;94363.28;;;16.25;46.51
74921;BME280;63483;47.384;8.860;2022-10-15T13:15:27;94364.69;;;16.27;46.74
74921;BME280;63483;47.384;8.860;2022-10-15T13:17:55;94370.53;;;16.29;46.58
74921;BME280;63483;47.384;8.860;2022-10-15T13:20:29;94357.91;;;16.31;45.86
74921;BME280;63483;47.384;8.860;2022-10-15T13:23:21;94364.34;;;16.36;46.50
74921;BME280;63483;47.384;8.860;2022-10-15T13:25:48;94366.66;;;16.32;46.13
74921;BME280;63483;47.384;8.860;2022-10-15T13:28:33;94368.00;;;16.35;46.62
74921;BME280;63483;47.384;8.860;2022-10-15T13:31:02;94365.59;;;16.33;46.77
74921;BME280;63483;47.384;8.860;2022-10-15T13:33:30;94355.84;;;16.33;46.72
74921;BME280;63483;47.384;8.860;2022-10-15T13:36:04;94353.78;;;16.36;45.89
74921;BME280;63483;47.384;8.860;2022-10-15T13:38:29;94356.44;;;16.36;46.12
74921;BME280;63483;47.384;8.860;2022-10-15T13:40:55;94347.25;;;16.38;46.33
74921;BME280;63483;47.384;8.860;2022-10-15T13:43:22;94339.44;;;16.43;46.67
74921;BME280;63483;47.384;8.860;2022-10-15T13:48:21;94337.75;;;16.49;45.70
74921;BME280;63483;47.384;8.860;2022-10-15T13:50:50;94336.72;;;16.50;45.69
74921;BME280;63483;47.384;8.860;2022-10-15T13:53:22;94339.50;;;16.55;45.65
74921;BME280;63483;47.384;8.860;2022-10-15T13:55:53;94323.78;;;16.60;45.13
74921;BME280;63483;47.384;8.860;2022-10-15T13:58:22;94331.47;;;16.62;45.72
74921;BME280;63483;47.384;8.860;2022-10-15T14:00:56;94334.91;;;16.62;46.14
74921;BME280;63483;47.384;8.860;2022-10-15T14:03:28;94335.53;;;16.64;46.40
74921;BME280;63483;47.384;8.860;2022-10-15T14:05:54;94342.63;;;16.64;46.65
74921;BME280;63483;47.384;8.860;2022-10-15T14:08:23;94336.75;;;16.62;46.32
74921;BME280;63483;47.384;8.860;2022-10-15T14:10:51;94339.03;;;16.58;46.25
74921;BME280;63483;47.384;8.860;2022-10-15T14:13:17;94340.09;;;16.57;46.66
74921;BME280;63483;47.384;8.860;2022-10-15T14:15:55;94342.13;;;16.55;46.73
74921;BME280;63483;47.384;8.860;2022-10-15T14:18:49;94337.06;;;16.54;47.03
74921;BME280;63483;47.384;8.860;2022-10-15T14:21:18;94338.56;;;16.49;46.03
74921;BME280;63483;47.384;8.860;2022-10-15T14:23:45;94338.81;;;16.48;46.57
74921;BME280;63483;47.384;8.860;2022-10-15T14:26:12;94334.75;;;16.45;46.35
74921;BME280;63483;47.384;8.860;2022-10-15T14:28:39;94343.38;;;16.41;46.52
74921;BME280;63483;47.384;8.860;2022-10-15T14:31:05;94334.03;;;16.38;47.04
74921;BME280;63483;47.384;8.860;2022-10-15T14:38:33;94339.53;;;16.37;47.32
74921;BME280;63483;47.384;8.860;2022-10-15T14:41:01;94350.13;;;16.37;47.62
74921;BME280;63483;47.384;8.860;2022-10-15T14:43:35;94338.53;;;16.38;48.26
74921;BME280;63483;47.384;8.860;2022-10-15T14:46:03;94342.75;;;16.39;48.71
74921;BME280;63483;47.384;8.860;2022-10-15T14:48:33;94347.25;;;16.38;49.10
74921;BME280;63483;47.384;8.860;2022-10-15T14:51:05;94355.41;;;16.37;49.30
74921;BME280;63483;47.384;8.860;2022-10-15T14:53:35;94348.50;;;16.36;49.22
74921;BME280;63483;47.384;8.860;2022-10-15T14:56:09;94346.88;;;16.35;49.28
74921;BME280;63483;47.384;8.860;2022-10-15T14:58:38;94340.00;;;16.33;48.97
74921;BME280;63483;47.384;8.860;2022-10-15T15:01:06;94338.38;;;16.32;48.74
74921;BME280;63483;47.384;8.860;2022-10-15T15:03:44;94336.75;;;16.31;49.01